createdAt,value
2022-12-24T00:56:24.704Z,5.53
2022-12-24T00:58:54.016Z,3.63
2022-12-24T01:01:27.089Z,4.05
2022-12-24T01:04:18.032Z,3.42
2022-12-24T01:06:46.457Z,3.60
2022-12-24T01:09:15.441Z,3.25
2022-12-24T01:11:42.727Z,3.25
2022-12-24T01:14:09.819Z,4.07
2022-12-24T01:16:37.215Z,4.32
2022-12-24T01:19:09.133Z,3.97
2022-12-24T01:21:51.993Z,4.95
2022-12-24T01:30:26.556Z,4.38
2022-12-24T01:33:33.204Z,4.03
2022-12-24T01:36:18.337Z,5.15
2022-12-24T01:42:19.624Z,5.00
2022-12-24T01:44:49.815Z,5.70
2022-12-24T01:47:25.875Z,5.72
2022-12-24T01:50:03.721Z,5.50
2022-12-24T01:52:36.791Z,5.95
2022-12-24T01:55:12.988Z,6.18
2022-12-24T01:57:50.733Z,4.82
2022-12-24T02:00:18.180Z,5.05
2022-12-24T02:02:49.780Z,5.20
2022-12-24T02:05:28.970Z,5.05
2022-12-24T02:07:57.408Z,4.35
2022-12-24T02:10:30.192Z,3.92
2022-12-24T02:12:57.985Z,3.93
2022-12-24T02:15:39.644Z,4.88
2022-12-24T02:18:21.030Z,3.92
2022-12-24T02:21:10.152Z,3.35
2022-12-24T02:23:57.266Z,3.92
2022-12-24T02:27:15.117Z,3.45
2022-12-24T02:29:57.836Z,3.95
2022-12-24T02:32:29.052Z,3.50
2022-12-24T02:35:25.164Z,3.85
2022-12-24T02:38:31.248Z,3.40
2022-12-24T02:41:20.838Z,3.60
2022-12-24T02:43:55.186Z,3.33
2022-12-24T02:46:31.796Z,3.40
2022-12-24T02:49:08.143Z,3.60
2022-12-24T02:51:49.304Z,3.10
2022-12-24T03:01:21.534Z,4.45
2022-12-24T03:04:03.579Z,5.50
2022-12-24T03:07:24.031Z,6.65
2022-12-24T03:10:04.765Z,6.80
2022-12-24T03:15:32.019Z,6.10
2022-12-24T03:21:07.446Z,7.78
2022-12-24T03:23:37.520Z,7.90
2022-12-24T03:26:09.298Z,8.00
2022-12-24T03:28:42.796Z,8.30
2022-12-24T03:31:17.239Z,7.47
2022-12-24T03:33:46.018Z,9.23
2022-12-24T03:36:13.792Z,7.95
2022-12-24T03:38:54.713Z,7.00
2022-12-24T03:41:24.893Z,7.32
2022-12-24T03:43:53.847Z,7.15
2022-12-24T03:46:36.160Z,7.47
2022-12-24T03:51:42.214Z,7.05
2022-12-24T03:54:10.283Z,6.53
2022-12-24T03:56:43.949Z,7.30
2022-12-24T04:06:33.846Z,8.30
2022-12-24T04:10:06.416Z,6.95
2022-12-24T04:25:05.525Z,7.85
2022-12-24T04:27:40.508Z,7.68
2022-12-24T04:30:44.967Z,9.73
2022-12-24T04:36:29.753Z,9.40
2022-12-24T04:39:08.223Z,8.20
2022-12-24T04:41:43.119Z,8.35
2022-12-24T04:44:22.197Z,8.80
2022-12-24T04:47:01.947Z,9.82
2022-12-24T04:49:33.372Z,9.23
2022-12-24T04:52:13.535Z,10.68
2022-12-24T04:54:44.025Z,9.77
2022-12-24T04:57:19.987Z,10.30
2022-12-24T05:00:01.581Z,10.60
2022-12-24T05:02:37.563Z,12.63
2022-12-24T05:05:22.609Z,10.85
2022-12-24T05:08:05.487Z,11.35
2022-12-24T05:10:55.664Z,10.77
2022-12-24T05:13:23.313Z,10.50
2022-12-24T05:15:50.997Z,10.23
2022-12-24T05:18:19.389Z,10.50
2022-12-24T05:20:49.561Z,10.75
2022-12-24T05:23:37.444Z,12.07
2022-12-24T05:26:23.426Z,12.35
2022-12-24T05:29:01.058Z,10.43
2022-12-24T05:31:34.542Z,12.15
2022-12-24T05:34:06.887Z,11.82
2022-12-24T05:39:19.389Z,10.27
2022-12-24T05:41:51.270Z,11.18
2022-12-24T05:44:22.583Z,11.48
2022-12-24T05:46:51.797Z,14.55
2022-12-24T05:49:21.201Z,11.75
2022-12-24T05:52:09.547Z,11.30
2022-12-24T05:54:38.737Z,12.45
2022-12-24T05:57:07.503Z,11.77
2022-12-24T05:59:34.677Z,11.57
2022-12-24T06:02:03.001Z,12.13
2022-12-24T06:04:30.151Z,10.95
2022-12-24T06:06:57.226Z,11.52
2022-12-24T06:09:24.178Z,11.80
2022-12-24T06:11:51.332Z,12.90
2022-12-24T06:14:18.403Z,11.77
2022-12-24T06:16:45.482Z,13.02
2022-12-24T06:19:12.588Z,12.25
2022-12-24T06:21:39.681Z,11.60
2022-12-24T06:24:06.967Z,12.23
2022-12-24T06:26:34.009Z,13.98
2022-12-24T06:29:01.060Z,13.63
2022-12-24T06:31:28.174Z,13.55
2022-12-24T06:33:55.487Z,12.63
2022-12-24T06:36:24.049Z,13.88
2022-12-24T06:38:51.398Z,11.45
2022-12-24T06:41:18.585Z,12.45
2022-12-24T06:43:46.417Z,12.27
2022-12-24T06:46:13.792Z,12.20
2022-12-24T06:48:40.998Z,11.90
2022-12-24T06:51:08.074Z,11.20
2022-12-24T06:53:35.044Z,11.70
2022-12-24T06:56:06.289Z,12.10
2022-12-24T06:58:33.825Z,11.43
2022-12-24T07:01:07.983Z,12.55
2022-12-24T07:03:35.281Z,12.15
2022-12-24T07:06:02.483Z,11.68
2022-12-24T07:08:29.806Z,12.15
2022-12-24T07:10:56.761Z,12.18
2022-12-24T07:13:23.791Z,10.80
2022-12-24T07:16:00.808Z,12.45
2022-12-24T07:18:28.328Z,14.18
2022-12-24T07:24:49.654Z,12.77
2022-12-24T07:28:39.975Z,12.32
2022-12-24T07:31:15.163Z,11.77
2022-12-24T07:39:49.204Z,11.15
2022-12-24T07:42:16.376Z,12.63
2022-12-24T07:44:44.276Z,12.40
2022-12-24T07:47:20.808Z,13.93
2022-12-24T07:49:47.911Z,12.20
2022-12-24T07:52:15.070Z,12.35
2022-12-24T07:54:47.283Z,12.25
2022-12-24T07:57:14.414Z,11.98
2022-12-24T07:59:41.394Z,12.35
2022-12-24T08:02:17.633Z,12.77
2022-12-24T08:04:45.418Z,14.25
2022-12-24T08:07:14.958Z,14.68
2022-12-24T08:09:42.131Z,13.55
2022-12-24T08:12:09.401Z,13.13
2022-12-24T08:15:05.087Z,13.77
2022-12-24T08:17:37.069Z,14.32
2022-12-24T08:20:07.834Z,12.90
2022-12-24T08:22:34.865Z,12.80
2022-12-24T08:25:01.874Z,11.13
2022-12-24T08:27:28.972Z,9.80
2022-12-24T08:29:55.970Z,12.85
2022-12-24T08:32:23.035Z,12.38
2022-12-24T08:34:51.570Z,11.10
2022-12-24T08:37:18.569Z,11.73
2022-12-24T08:39:45.966Z,10.27
2022-12-24T08:42:13.062Z,10.93
2022-12-24T08:44:40.339Z,12.70
2022-12-24T08:47:07.577Z,15.13
2022-12-24T08:49:34.522Z,12.43
2022-12-24T08:52:09.022Z,13.13
2022-12-24T08:54:36.059Z,11.38
2022-12-24T08:57:03.366Z,11.48
2022-12-24T08:59:30.600Z,10.10
2022-12-24T09:02:00.094Z,12.55
2022-12-24T09:04:28.443Z,14.43
2022-12-24T09:09:46.939Z,18.08
2022-12-24T09:12:14.110Z,17.35
2022-12-24T09:14:41.249Z,18.08
2022-12-24T09:17:08.232Z,17.38
2022-12-24T09:19:35.287Z,21.50
2022-12-24T09:22:02.236Z,28.17
2022-12-24T09:24:29.217Z,21.58
2022-12-24T09:26:58.094Z,19.92
2022-12-24T09:29:25.575Z,19.02
2022-12-24T09:31:52.807Z,17.73
2022-12-24T09:34:21.739Z,17.05
2022-12-24T09:36:54.347Z,14.75
2022-12-24T09:39:21.331Z,15.93
2022-12-24T09:42:29.316Z,15.93
2022-12-24T09:45:01.365Z,15.23
2022-12-24T09:47:39.982Z,18.17
2022-12-24T09:50:25.941Z,16.67
2022-12-24T09:52:53.290Z,14.15
2022-12-24T09:55:44.971Z,15.82
2022-12-24T09:58:21.928Z,13.90
2022-12-24T10:00:50.301Z,14.25
2022-12-24T10:03:17.994Z,11.85
2022-12-24T10:06:09.023Z,10.50
2022-12-24T10:08:54.222Z,11.43
2022-12-24T10:11:49.769Z,7.72
2022-12-24T10:14:56.626Z,6.93
2022-12-24T10:20:21.712Z,4.85
2022-12-24T10:23:10.543Z,3.60
2022-12-24T10:25:51.504Z,3.05
2022-12-24T10:28:29.943Z,3.03
2022-12-24T10:31:00.305Z,2.33
2022-12-24T10:33:44.226Z,3.50
2022-12-24T10:36:18.834Z,2.00
2022-12-24T10:38:50.939Z,1.92
2022-12-24T10:41:20.333Z,1.55
2022-12-24T10:43:47.346Z,1.90
2022-12-24T10:46:35.912Z,1.73
2022-12-24T10:49:04.948Z,2.63
2022-12-24T10:51:43.169Z,2.10
2022-12-24T10:54:34.206Z,1.92
2022-12-24T10:57:24.248Z,2.47
2022-12-24T10:59:55.350Z,2.53
2022-12-24T11:02:38.401Z,2.17
2022-12-24T11:05:28.774Z,2.67
2022-12-24T11:08:20.498Z,1.90
2022-12-24T11:11:34.199Z,1.83
2022-12-24T11:14:01.585Z,2.65
2022-12-24T11:16:30.523Z,2.05
2022-12-24T11:18:58.886Z,2.13
2022-12-24T11:21:32.228Z,2.22
2022-12-24T11:24:03.090Z,2.88
2022-12-24T11:26:30.936Z,2.20
2022-12-24T11:29:30.783Z,3.88
2022-12-24T11:32:21.654Z,2.85
2022-12-24T11:34:49.096Z,2.65
2022-12-24T11:37:24.104Z,3.20
2022-12-24T11:40:00.407Z,3.42
2022-12-24T11:42:38.164Z,2.80
2022-12-24T11:45:26.443Z,3.03
2022-12-24T11:48:59.259Z,2.78
2022-12-24T11:51:29.744Z,5.30
2022-12-24T11:54:11.467Z,2.70
2022-12-24T11:56:52.602Z,2.13
2022-12-24T11:59:27.370Z,4.43
2022-12-24T12:02:53.603Z,2.95
2022-12-24T12:12:16.027Z,2.47
2022-12-24T12:15:01.193Z,2.90
2022-12-24T12:17:38.207Z,2.63
2022-12-24T12:20:43.763Z,4.53
2022-12-24T12:23:34.790Z,5.40
2022-12-24T12:26:09.174Z,4.75
2022-12-24T12:29:01.872Z,6.47
2022-12-24T12:31:49.314Z,7.43
2022-12-24T12:34:21.265Z,7.00
2022-12-24T12:37:33.281Z,6.35
2022-12-24T12:40:00.641Z,5.35
2022-12-24T12:42:59.150Z,5.47
2022-12-24T12:45:59.072Z,3.75
2022-12-24T12:48:29.190Z,3.90
2022-12-24T12:51:02.942Z,4.15
2022-12-24T12:54:04.938Z,4.78
2022-12-24T12:56:35.653Z,3.67
2022-12-24T12:59:10.750Z,4.95
2022-12-24T13:02:09.384Z,4.30
2022-12-24T13:04:36.506Z,3.90
2022-12-24T13:07:26.245Z,4.28
2022-12-24T13:10:02.326Z,3.85
2022-12-24T13:12:51.161Z,5.03
2022-12-24T13:15:29.910Z,5.55
2022-12-24T13:18:01.672Z,6.80
2022-12-24T13:20:32.585Z,5.10
2022-12-24T13:23:02.187Z,4.57
2022-12-24T13:25:49.300Z,5.32
2022-12-24T13:28:24.533Z,5.47
2022-12-24T13:31:12.667Z,5.10
2022-12-24T13:33:39.654Z,7.90
2022-12-24T13:36:11.984Z,6.00
2022-12-24T13:38:56.900Z,6.95
2022-12-24T13:41:41.406Z,5.97
2022-12-24T13:44:13.316Z,6.18
2022-12-24T13:46:49.620Z,6.15
2022-12-24T13:49:33.501Z,5.78
2022-12-24T13:52:09.510Z,5.82
2022-12-24T13:54:42.801Z,7.75
2022-12-24T13:57:41.696Z,11.25
2022-12-24T14:00:20.682Z,14.38
2022-12-24T14:03:07.801Z,12.25
2022-12-24T14:05:38.101Z,12.13
2022-12-24T14:08:13.556Z,10.73
2022-12-24T14:10:46.299Z,11.95
2022-12-24T14:13:38.119Z,10.70
2022-12-24T14:16:21.806Z,8.20
2022-12-24T14:18:58.780Z,9.40
2022-12-24T14:21:35.052Z,7.85
2022-12-24T14:26:36.264Z,7.15
2022-12-24T14:29:12.026Z,7.28
2022-12-24T14:31:49.889Z,7.15
2022-12-24T14:34:17.023Z,6.95
2022-12-24T14:36:44.545Z,5.75
2022-12-24T14:39:16.508Z,6.45
2022-12-24T14:41:59.800Z,5.47
2022-12-24T14:44:48.492Z,5.47
2022-12-24T14:47:21.755Z,7.40
2022-12-24T14:50:26.092Z,8.02
2022-12-24T14:53:18.833Z,6.10
2022-12-24T14:55:47.770Z,5.55
2022-12-24T14:58:53.298Z,8.93
2022-12-24T15:01:25.343Z,7.05
2022-12-24T15:04:10.677Z,8.18
2022-12-24T15:06:52.849Z,9.15
2022-12-24T15:09:24.498Z,9.57
2022-12-24T15:11:54.312Z,10.13
2022-12-24T15:14:22.030Z,10.57
2022-12-24T15:17:18.589Z,12.48
2022-12-24T15:19:47.015Z,11.65
2022-12-24T15:22:25.586Z,9.35
2022-12-24T15:24:52.671Z,7.47
2022-12-24T15:27:21.703Z,8.70
2022-12-24T15:29:50.501Z,8.00
2022-12-24T15:32:18.989Z,8.43
2022-12-24T15:34:47.564Z,9.25
2022-12-24T15:37:17.648Z,11.82
2022-12-24T15:39:44.844Z,14.52
2022-12-24T15:42:14.720Z,15.40
2022-12-24T15:45:05.111Z,20.15
2022-12-24T15:47:39.060Z,23.20
2022-12-24T15:50:15.875Z,29.70
2022-12-24T15:52:42.929Z,28.98
2022-12-24T15:55:38.710Z,27.27
2022-12-24T15:58:27.289Z,21.45
2022-12-24T16:01:09.812Z,22.02
2022-12-24T16:03:38.459Z,24.92
2022-12-24T16:06:06.669Z,19.75
2022-12-24T16:08:39.187Z,18.70
2022-12-24T16:11:08.229Z,14.77
2022-12-24T16:13:41.001Z,15.82
2022-12-24T16:16:12.880Z,16.73
2022-12-24T16:18:49.283Z,15.60
2022-12-24T16:21:53.896Z,14.13
2022-12-24T16:24:23.413Z,9.07
2022-12-24T16:26:50.786Z,8.70
2022-12-24T16:29:19.476Z,9.05
2022-12-24T16:31:51.043Z,8.68
2022-12-24T16:34:18.120Z,9.82
2022-12-24T16:36:45.812Z,8.32
2022-12-24T16:39:33.800Z,8.77
2022-12-24T16:42:21.304Z,9.30
2022-12-24T16:44:48.682Z,8.20
2022-12-24T16:47:22.888Z,9.38
2022-12-24T16:49:57.570Z,10.15
2022-12-24T16:52:29.810Z,12.75
2022-12-24T16:54:57.389Z,12.20
2022-12-24T16:57:25.329Z,13.25
2022-12-24T16:59:57.584Z,12.52
2022-12-24T17:02:28.169Z,11.57
2022-12-24T17:05:04.701Z,11.80
2022-12-24T17:07:31.859Z,12.57
2022-12-24T17:09:58.950Z,10.88
2022-12-24T17:12:26.183Z,9.93
2022-12-24T17:14:54.396Z,11.50
2022-12-24T17:17:33.901Z,10.13
2022-12-24T17:20:04.930Z,11.20
2022-12-24T17:22:32.108Z,10.48
2022-12-24T17:24:59.185Z,11.85
2022-12-24T17:27:26.457Z,12.13
2022-12-24T17:29:54.883Z,11.88
2022-12-24T17:32:22.201Z,12.05
2022-12-24T17:34:49.326Z,12.57
2022-12-24T17:37:16.396Z,14.30
2022-12-24T17:39:43.389Z,14.57
2022-12-24T17:42:10.598Z,14.27
2022-12-24T17:44:37.587Z,13.93
2022-12-24T17:47:05.438Z,14.60
2022-12-24T17:49:32.720Z,14.57
2022-12-24T17:52:00.106Z,14.68
2022-12-24T17:54:27.082Z,15.40
2022-12-24T17:56:54.144Z,15.13
2022-12-24T17:59:21.310Z,19.25
2022-12-24T18:01:56.749Z,18.58
2022-12-24T18:04:26.219Z,20.58
2022-12-24T18:06:59.584Z,25.27
2022-12-24T18:09:29.498Z,21.58
2022-12-24T18:11:56.547Z,24.75
2022-12-24T18:14:23.607Z,25.35
2022-12-24T18:16:50.750Z,25.15
2022-12-24T18:19:17.857Z,26.63
2022-12-24T18:21:46.111Z,25.25
2022-12-24T18:24:13.359Z,23.60
2022-12-24T18:26:40.463Z,23.45
2022-12-24T18:29:08.966Z,25.30
2022-12-24T18:31:36.416Z,28.23
2022-12-24T18:34:04.503Z,26.70
2022-12-24T18:36:31.767Z,27.35
2022-12-24T18:38:58.885Z,23.95
2022-12-24T18:41:27.916Z,23.67
2022-12-24T18:43:55.071Z,26.67
2022-12-24T18:46:23.857Z,25.70
2022-12-24T18:48:51.117Z,25.15
2022-12-24T18:51:18.960Z,21.85
2022-12-24T18:53:45.896Z,24.08
2022-12-24T18:56:15.934Z,22.40
2022-12-24T18:58:43.318Z,21.77
2022-12-24T19:01:18.031Z,20.67
2022-12-24T19:03:45.329Z,21.75
2022-12-24T19:06:12.272Z,20.05
2022-12-24T19:08:56.990Z,20.00
2022-12-24T19:11:25.338Z,17.50
2022-12-24T19:13:53.261Z,18.90
2022-12-24T19:16:20.744Z,17.13
2022-12-24T19:18:47.942Z,17.63
2022-12-24T19:21:15.685Z,16.85
2022-12-24T19:23:42.918Z,19.02
2022-12-24T19:26:11.236Z,17.02
2022-12-24T19:28:38.326Z,15.45
2022-12-24T19:31:15.054Z,16.63
2022-12-24T19:33:46.777Z,14.38
2022-12-24T19:36:16.134Z,13.73
2022-12-24T19:38:43.654Z,13.85
2022-12-24T19:41:16.096Z,12.82
2022-12-24T19:43:46.674Z,11.80
2022-12-24T19:46:15.249Z,10.18
2022-12-24T19:48:45.423Z,9.45
2022-12-24T19:51:12.624Z,11.40
2022-12-24T19:53:39.751Z,10.57
2022-12-24T19:56:07.280Z,12.38
2022-12-24T19:58:34.482Z,13.85
2022-12-24T20:01:14.737Z,12.73
2022-12-24T20:03:42.463Z,10.52
2022-12-24T20:06:09.624Z,12.15
2022-12-24T20:08:37.206Z,14.00
2022-12-24T20:11:06.675Z,15.85
2022-12-24T20:13:37.303Z,16.70
2022-12-24T20:16:09.194Z,15.30
2022-12-24T20:18:36.533Z,15.15
2022-12-24T20:21:05.172Z,15.60
2022-12-24T20:23:32.173Z,16.88
2022-12-24T20:26:01.516Z,17.13
2022-12-24T20:28:29.156Z,18.67
2022-12-24T20:30:56.249Z,19.83
2022-12-24T20:33:23.275Z,18.25
2022-12-24T20:35:50.318Z,18.15
2022-12-24T20:38:17.387Z,20.33
2022-12-24T20:40:45.245Z,20.65
2022-12-24T20:43:12.878Z,19.33
2022-12-24T20:45:40.100Z,20.55
2022-12-24T20:48:07.229Z,21.40
2022-12-24T20:50:34.348Z,19.80
2022-12-24T20:53:01.374Z,19.92
2022-12-24T20:55:28.485Z,20.55
2022-12-24T20:57:55.573Z,17.55
2022-12-24T21:00:23.523Z,17.83
2022-12-24T21:02:52.110Z,16.98
2022-12-24T21:05:19.297Z,15.55
2022-12-24T21:07:48.237Z,15.40
2022-12-24T21:10:15.590Z,15.88
2022-12-24T21:12:59.052Z,14.73
2022-12-24T21:15:28.177Z,15.65
2022-12-24T21:17:55.741Z,13.73
2022-12-24T21:20:25.024Z,14.90
2022-12-24T21:22:55.970Z,14.50
2022-12-24T21:25:27.598Z,16.77
2022-12-24T21:27:57.386Z,17.98
2022-12-24T21:30:24.703Z,16.25
2022-12-24T21:32:51.930Z,15.52
2022-12-24T21:35:19.059Z,17.50
2022-12-24T21:37:48.588Z,15.20
2022-12-24T21:40:15.659Z,15.65
2022-12-24T21:42:42.803Z,15.57
2022-12-24T21:45:10.945Z,14.73
2022-12-24T21:47:38.421Z,11.85
2022-12-24T21:50:29.984Z,12.80
2022-12-24T21:53:19.179Z,13.33
2022-12-24T21:55:46.367Z,16.30
2022-12-24T21:58:13.707Z,17.60
2022-12-24T22:00:40.993Z,18.58
2022-12-24T22:03:11.152Z,23.23
2022-12-24T22:05:38.192Z,23.92
2022-12-24T22:08:27.738Z,23.70
2022-12-24T22:11:16.451Z,23.80
2022-12-24T22:13:43.454Z,22.27
2022-12-24T22:16:16.067Z,22.63
2022-12-24T22:18:43.272Z,21.88
2022-12-24T22:21:11.524Z,20.48
2022-12-24T22:23:42.362Z,18.58
2022-12-24T22:26:11.911Z,17.48
2022-12-24T22:28:39.007Z,17.33
2022-12-24T22:31:08.372Z,18.92
2022-12-24T22:33:42.125Z,17.65
2022-12-24T22:38:36.455Z,15.10
2022-12-24T22:41:09.809Z,14.48
2022-12-24T22:43:39.821Z,16.23
2022-12-24T22:46:07.918Z,13.05
2022-12-24T22:48:43.456Z,13.80
2022-12-24T22:51:14.168Z,15.25
2022-12-24T22:53:41.435Z,13.52
2022-12-24T22:56:09.673Z,14.38
2022-12-24T22:58:37.272Z,14.45
2022-12-24T23:01:06.476Z,14.43
2022-12-24T23:03:33.944Z,15.77
2022-12-24T23:06:04.094Z,16.05
2022-12-24T23:08:32.138Z,14.00
2022-12-24T23:11:15.756Z,16.08
2022-12-24T23:14:02.781Z,14.60
2022-12-24T23:16:33.397Z,13.65
2022-12-24T23:19:01.194Z,14.75
2022-12-24T23:21:28.217Z,14.05
2022-12-24T23:23:57.089Z,15.88
2022-12-24T23:26:24.381Z,17.45
2022-12-24T23:28:53.226Z,16.25
2022-12-24T23:31:20.780Z,15.95
2022-12-24T23:33:48.010Z,16.25
2022-12-24T23:36:15.215Z,13.40
2022-12-24T23:38:42.252Z,13.50
2022-12-24T23:41:09.396Z,12.15
2022-12-24T23:43:36.459Z,12.15
2022-12-24T23:46:03.565Z,11.63
2022-12-24T23:48:30.557Z,12.65
2022-12-24T23:51:14.065Z,11.70
2022-12-24T23:53:41.086Z,10.43
2022-12-24T23:56:08.396Z,9.95
2022-12-24T23:58:35.439Z,10.45
